createdAt,value
2022-10-25T00:01:12.258Z,12.53
2022-10-25T00:03:38.555Z,12.54
2022-10-25T00:06:04.836Z,12.53
2022-10-25T00:08:31.292Z,12.57
2022-10-25T00:10:57.538Z,12.58
2022-10-25T00:13:24.082Z,12.57
2022-10-25T00:15:50.330Z,12.49
2022-10-25T00:18:16.611Z,12.54
2022-10-25T00:20:42.900Z,12.50
2022-10-25T00:23:09.413Z,12.48
2022-10-25T00:25:35.669Z,12.45
2022-10-25T00:28:01.920Z,12.45
2022-10-25T00:30:28.190Z,12.29
2022-10-25T00:32:54.590Z,12.20
2022-10-25T00:35:20.842Z,12.03
2022-10-25T00:37:47.122Z,12.18
2022-10-25T00:40:13.370Z,12.23
2022-10-25T00:42:39.624Z,12.06
2022-10-25T00:45:05.867Z,12.18
2022-10-25T00:47:33.480Z,12.18
2022-10-25T00:49:59.730Z,12.25
2022-10-25T00:52:26.131Z,12.24
2022-10-25T00:54:52.387Z,11.93
2022-10-25T00:57:18.655Z,12.01
2022-10-25T00:59:44.895Z,11.91
2022-10-25T01:02:11.293Z,11.94
2022-10-25T01:04:37.682Z,12.05
2022-10-25T01:07:03.947Z,12.13
2022-10-25T01:09:30.255Z,12.10
2022-10-25T01:11:56.504Z,12.13
2022-10-25T01:14:23.090Z,12.22
2022-10-25T01:16:49.348Z,12.20
2022-10-25T01:19:15.629Z,12.24
2022-10-25T01:21:41.874Z,12.29
2022-10-25T01:24:08.128Z,12.35
2022-10-25T01:26:34.388Z,12.32
2022-10-25T01:29:00.630Z,12.20
2022-10-25T01:31:26.937Z,12.16
2022-10-25T01:33:53.192Z,12.10
2022-10-25T01:36:19.502Z,12.01
2022-10-25T01:38:45.762Z,11.97
2022-10-25T01:41:12.053Z,11.95
2022-10-25T01:43:39.184Z,12.01
2022-10-25T01:46:05.364Z,12.03
2022-10-25T01:48:31.611Z,11.95
2022-10-25T01:50:57.866Z,11.94
2022-10-25T01:53:24.116Z,11.94
2022-10-25T01:55:50.355Z,11.82
2022-10-25T01:58:16.611Z,11.85
2022-10-25T02:00:42.899Z,11.69
2022-10-25T02:03:09.180Z,11.75
2022-10-25T02:05:35.433Z,11.74
2022-10-25T02:08:01.735Z,11.69
2022-10-25T02:10:28.185Z,11.57
2022-10-25T02:12:54.429Z,11.63
2022-10-25T02:15:20.680Z,11.68
2022-10-25T02:17:46.974Z,11.49
2022-10-25T02:20:13.332Z,11.60
2022-10-25T02:22:41.261Z,11.31
2022-10-25T02:25:07.537Z,11.49
2022-10-25T02:27:33.844Z,11.54
2022-10-25T02:30:00.124Z,11.38
2022-10-25T02:32:26.378Z,11.49
2022-10-25T02:34:52.672Z,11.50
2022-10-25T02:37:18.923Z,11.36
2022-10-25T02:39:45.479Z,11.57
2022-10-25T02:42:11.724Z,11.48
2022-10-25T02:44:37.991Z,11.49
2022-10-25T02:47:04.248Z,11.60
2022-10-25T02:49:30.551Z,11.64
2022-10-25T02:51:56.823Z,11.69
2022-10-25T02:54:23.078Z,11.75
2022-10-25T02:56:52.274Z,11.83
2022-10-25T02:59:18.964Z,11.81
2022-10-25T03:01:45.272Z,11.86
2022-10-25T03:04:11.592Z,11.82
2022-10-25T03:06:37.834Z,11.83
2022-10-25T03:09:04.112Z,11.90
2022-10-25T03:11:30.366Z,11.93
2022-10-25T03:13:56.643Z,11.89
2022-10-25T03:16:22.944Z,11.93
2022-10-25T03:18:49.199Z,11.93
2022-10-25T03:21:15.529Z,11.94
2022-10-25T03:23:41.851Z,11.96
2022-10-25T03:26:08.120Z,11.96
2022-10-25T03:28:34.532Z,11.97
2022-10-25T03:31:00.808Z,11.98
2022-10-25T03:33:27.442Z,11.93
2022-10-25T03:35:53.745Z,11.91
2022-10-25T03:38:19.983Z,11.91
2022-10-25T03:40:46.263Z,11.93
2022-10-25T03:43:12.578Z,11.89
2022-10-25T03:45:38.888Z,11.82
2022-10-25T03:48:05.132Z,11.81
2022-10-25T03:50:31.398Z,11.84
2022-10-25T03:52:57.688Z,11.85
2022-10-25T03:55:23.995Z,11.89
2022-10-25T03:57:50.283Z,11.91
2022-10-25T04:00:16.538Z,11.92
2022-10-25T04:02:42.829Z,11.91
2022-10-25T04:05:09.119Z,11.97
2022-10-25T04:07:35.379Z,12.01
2022-10-25T04:10:01.642Z,12.02
2022-10-25T04:12:27.889Z,11.87
2022-10-25T04:14:54.134Z,11.85
2022-10-25T04:17:20.550Z,11.92
2022-10-25T04:19:46.814Z,11.93
2022-10-25T04:22:13.237Z,12.04
2022-10-25T04:24:39.547Z,12.21
2022-10-25T04:27:05.818Z,12.38
2022-10-25T04:29:32.080Z,12.50
2022-10-25T04:31:58.342Z,12.66
2022-10-25T04:34:24.587Z,12.71
2022-10-25T04:36:50.844Z,12.78
2022-10-25T04:39:17.104Z,12.89
2022-10-25T04:41:43.419Z,12.84
2022-10-25T04:44:09.687Z,12.92
2022-10-25T04:46:35.991Z,12.99
2022-10-25T04:49:02.256Z,13.03
2022-10-25T04:51:28.671Z,13.01
2022-10-25T04:53:54.921Z,13.01
2022-10-25T04:56:21.182Z,13.06
2022-10-25T04:58:47.445Z,13.08
2022-10-25T05:01:13.770Z,13.18
2022-10-25T05:03:40.025Z,13.08
2022-10-25T05:06:06.497Z,12.96
2022-10-25T05:08:32.799Z,12.88
2022-10-25T05:10:59.070Z,12.88
2022-10-25T05:13:25.327Z,12.84
2022-10-25T05:15:51.592Z,12.86
2022-10-25T05:18:17.853Z,12.84
2022-10-25T05:20:44.482Z,12.82
2022-10-25T05:23:10.794Z,12.80
2022-10-25T05:25:37.077Z,12.74
2022-10-25T05:28:03.478Z,12.70
2022-10-25T05:30:29.740Z,12.60
2022-10-25T05:32:56.316Z,12.59
2022-10-25T05:35:22.570Z,12.60
2022-10-25T05:37:48.829Z,12.55
2022-10-25T05:40:18.322Z,12.57
2022-10-25T05:42:44.758Z,12.54
2022-10-25T05:45:11.250Z,12.51
2022-10-25T05:47:37.507Z,12.47
2022-10-25T05:50:03.750Z,12.53
2022-10-25T05:52:30.070Z,12.49
2022-10-25T05:54:56.318Z,12.43
2022-10-25T05:57:22.603Z,12.46
2022-10-25T05:59:48.850Z,12.49
2022-10-25T06:02:15.260Z,12.46
2022-10-25T06:04:41.574Z,12.43
2022-10-25T06:07:07.842Z,12.32
2022-10-25T06:09:34.086Z,12.28
2022-10-25T06:12:00.375Z,12.27
2022-10-25T06:14:26.626Z,12.23
2022-10-25T06:16:52.937Z,12.19
2022-10-25T06:19:19.196Z,12.23
2022-10-25T06:21:46.740Z,12.35
2022-10-25T06:24:13.019Z,12.42
2022-10-25T06:26:39.439Z,12.55
2022-10-25T06:29:05.799Z,12.54
2022-10-25T06:31:32.079Z,12.59
2022-10-25T06:33:58.340Z,12.64
2022-10-25T06:36:24.811Z,12.83
2022-10-25T06:38:51.131Z,12.91
2022-10-25T06:41:17.427Z,12.93
2022-10-25T06:43:43.707Z,12.99
2022-10-25T06:46:10.001Z,13.15
2022-10-25T06:48:36.418Z,13.24
2022-10-25T06:51:02.964Z,13.20
2022-10-25T06:53:29.228Z,13.32
2022-10-25T06:55:55.475Z,13.39
2022-10-25T06:58:21.730Z,13.45
2022-10-25T07:00:49.657Z,13.52
2022-10-25T07:03:15.996Z,13.65
2022-10-25T07:05:42.280Z,13.97
2022-10-25T07:08:08.518Z,14.07
2022-10-25T07:10:34.827Z,14.49
2022-10-25T07:13:01.078Z,14.70
2022-10-25T07:15:27.355Z,14.56
2022-10-25T07:17:53.606Z,14.65
2022-10-25T07:20:19.864Z,14.57
2022-10-25T07:22:46.387Z,14.48
2022-10-25T07:25:12.637Z,14.60
2022-10-25T07:27:38.935Z,14.77
2022-10-25T07:30:05.207Z,14.83
2022-10-25T07:32:31.502Z,14.92
2022-10-25T07:37:28.919Z,14.99
2022-10-25T07:39:55.178Z,15.01
2022-10-25T07:42:21.431Z,15.09
2022-10-25T07:44:47.714Z,15.16
2022-10-25T07:47:13.995Z,15.15
2022-10-25T07:49:40.293Z,15.13
2022-10-25T07:52:06.549Z,15.11
2022-10-25T07:54:32.897Z,15.39
2022-10-25T07:56:59.274Z,15.30
2022-10-25T07:59:25.526Z,15.49
2022-10-25T08:01:51.880Z,15.63
2022-10-25T08:04:18.335Z,15.77
2022-10-25T08:06:44.694Z,16.12
2022-10-25T08:09:15.026Z,16.23
2022-10-25T08:11:52.909Z,16.36
2022-10-25T08:16:54.270Z,16.46
2022-10-25T08:19:20.517Z,16.62
2022-10-25T08:21:46.803Z,16.89
2022-10-25T08:24:13.202Z,17.05
2022-10-25T08:26:39.707Z,17.09
2022-10-25T08:29:06.011Z,17.12
2022-10-25T08:31:32.291Z,17.14
2022-10-25T08:33:58.591Z,17.01
2022-10-25T08:36:26.462Z,17.14
2022-10-25T08:38:52.900Z,17.35
2022-10-25T08:41:19.151Z,17.51
2022-10-25T08:43:45.784Z,17.29
2022-10-25T08:46:13.641Z,17.25
2022-10-25T08:48:39.927Z,17.21
2022-10-25T08:51:06.188Z,17.19
2022-10-25T08:53:32.904Z,17.35
2022-10-25T08:56:15.717Z,17.42
2022-10-25T08:58:42.700Z,17.69
2022-10-25T09:01:08.988Z,18.02
2022-10-25T09:03:35.317Z,17.83
2022-10-25T09:06:02.220Z,17.83
2022-10-25T09:08:28.499Z,18.05
2022-10-25T09:10:54.790Z,18.06
2022-10-25T09:13:21.042Z,17.91
2022-10-25T09:15:47.295Z,18.02
2022-10-25T09:18:13.580Z,17.93
2022-10-25T09:20:41.514Z,17.97
2022-10-25T09:23:07.750Z,18.18
2022-10-25T09:25:34.002Z,18.64
2022-10-25T09:28:04.259Z,18.64
2022-10-25T09:30:30.522Z,18.43
2022-10-25T09:32:56.884Z,18.00
2022-10-25T09:35:23.159Z,18.33
2022-10-25T09:37:49.811Z,18.23
2022-10-25T09:40:16.366Z,18.44
2022-10-25T09:42:42.651Z,18.61
2022-10-25T09:45:08.919Z,18.38
2022-10-25T09:47:35.208Z,18.70
2022-10-25T09:50:01.463Z,18.35
2022-10-25T09:52:29.003Z,18.14
2022-10-25T09:54:55.254Z,17.88
2022-10-25T09:57:21.501Z,17.66
2022-10-25T09:59:47.759Z,17.41
2022-10-25T10:02:14.114Z,17.35
2022-10-25T10:04:40.476Z,17.07
2022-10-25T10:07:07.134Z,17.19
2022-10-25T10:09:33.394Z,17.36
2022-10-25T10:11:59.644Z,17.29
2022-10-25T10:14:26.071Z,17.53
2022-10-25T10:16:52.332Z,17.36
2022-10-25T10:19:18.603Z,17.40
2022-10-25T10:21:44.914Z,17.26
2022-10-25T10:24:11.165Z,17.37
2022-10-25T10:26:37.452Z,17.62
2022-10-25T10:29:07.855Z,17.42
2022-10-25T10:31:35.874Z,17.43
2022-10-25T10:34:02.141Z,17.33
2022-10-25T10:36:28.451Z,17.54
2022-10-25T10:38:54.823Z,17.65
2022-10-25T10:41:21.095Z,17.56
2022-10-25T10:43:47.372Z,17.65
2022-10-25T10:46:17.093Z,17.59
2022-10-25T10:48:43.511Z,17.57
2022-10-25T10:51:25.229Z,17.74
2022-10-25T10:53:56.078Z,17.67
2022-10-25T10:56:23.127Z,17.79
2022-10-25T10:58:53.240Z,17.77
2022-10-25T11:01:20.113Z,17.88
2022-10-25T11:03:59.123Z,17.47
2022-10-25T11:06:29.586Z,17.60
2022-10-25T11:08:55.845Z,17.50
2022-10-25T11:11:22.116Z,17.54
2022-10-25T11:13:51.146Z,17.45
2022-10-25T11:16:18.908Z,17.55
2022-10-25T11:18:45.902Z,17.43
2022-10-25T11:21:12.217Z,17.73
2022-10-25T11:23:38.495Z,18.10
2022-10-25T11:26:04.811Z,18.54
2022-10-25T11:28:31.075Z,18.77
2022-10-25T11:30:57.339Z,18.59
2022-10-25T11:33:23.613Z,19.33
2022-10-25T11:35:50.040Z,19.17
2022-10-25T11:38:16.351Z,19.06
2022-10-25T11:40:42.706Z,18.62
2022-10-25T11:43:08.971Z,18.98
2022-10-25T11:45:35.310Z,18.76
2022-10-25T11:48:01.581Z,18.72
2022-10-25T11:50:28.048Z,19.18
2022-10-25T11:52:56.096Z,19.20
2022-10-25T11:55:23.487Z,19.24
2022-10-25T11:57:49.793Z,19.11
2022-10-25T12:00:16.114Z,19.37
2022-10-25T12:05:33.288Z,18.88
2022-10-25T12:07:59.540Z,18.99
2022-10-25T12:10:25.799Z,19.05
2022-10-25T12:12:52.099Z,18.79
2022-10-25T12:15:18.414Z,19.25
2022-10-25T12:17:44.700Z,18.82
2022-10-25T12:20:10.951Z,19.17
2022-10-25T12:22:37.269Z,19.05
2022-10-25T12:25:03.564Z,19.32
2022-10-25T12:27:29.822Z,19.12
2022-10-25T12:29:56.092Z,18.97
2022-10-25T12:32:22.359Z,19.16
2022-10-25T12:34:49.129Z,19.22
2022-10-25T12:37:15.420Z,19.25
2022-10-25T12:39:41.714Z,19.22
2022-10-25T12:42:09.220Z,19.38
2022-10-25T12:44:35.494Z,19.43
2022-10-25T12:47:01.769Z,19.57
2022-10-25T12:49:28.029Z,19.21
2022-10-25T12:51:54.289Z,19.45
2022-10-25T12:54:20.551Z,19.36
2022-10-25T12:56:47.015Z,19.43
2022-10-25T12:59:13.321Z,19.38
2022-10-25T13:01:39.693Z,19.76
2022-10-25T13:04:06.082Z,19.29
2022-10-25T13:06:32.407Z,19.37
2022-10-25T13:08:58.658Z,18.87
2022-10-25T13:11:24.938Z,19.35
2022-10-25T13:13:51.229Z,19.11
2022-10-25T13:16:17.612Z,19.01
2022-10-25T13:18:43.960Z,19.22
2022-10-25T13:21:10.234Z,19.18
2022-10-25T13:23:36.549Z,19.28
2022-10-25T13:26:02.799Z,19.01
2022-10-25T13:28:32.721Z,19.26
2022-10-25T13:31:01.622Z,19.16
2022-10-25T13:33:27.920Z,19.06
2022-10-25T13:35:54.187Z,18.67
2022-10-25T13:38:20.463Z,18.51
2022-10-25T13:40:46.711Z,18.73
2022-10-25T13:43:12.985Z,18.93
2022-10-25T13:45:39.293Z,19.05
2022-10-25T13:48:05.590Z,18.76
2022-10-25T13:50:33.131Z,19.03
2022-10-25T13:53:01.736Z,18.77
2022-10-25T13:55:29.312Z,18.77
2022-10-25T13:57:55.613Z,18.74
2022-10-25T14:00:21.921Z,18.68
2022-10-25T14:02:48.585Z,18.64
2022-10-25T14:05:15.032Z,18.64
2022-10-25T14:10:32.199Z,18.76
2022-10-25T14:12:58.470Z,18.34
2022-10-25T14:15:24.726Z,18.66
2022-10-25T14:17:50.998Z,18.62
2022-10-25T14:20:17.269Z,18.41
2022-10-25T14:22:43.580Z,18.36
2022-10-25T14:25:09.841Z,18.26
2022-10-25T14:27:36.131Z,18.18
2022-10-25T14:30:02.437Z,18.32
2022-10-25T14:32:28.752Z,18.21
2022-10-25T14:34:55.006Z,18.18
2022-10-25T14:37:21.254Z,18.23
2022-10-25T14:39:47.507Z,18.14
2022-10-25T14:42:13.795Z,18.14
2022-10-25T14:44:40.227Z,18.14
2022-10-25T14:47:06.479Z,18.05
2022-10-25T14:49:32.745Z,18.00
2022-10-25T14:51:59.039Z,18.10
2022-10-25T14:54:25.311Z,18.26
2022-10-25T14:56:51.612Z,18.12
2022-10-25T14:59:18.064Z,18.18
2022-10-25T15:01:44.352Z,17.98
2022-10-25T15:04:10.640Z,18.21
2022-10-25T15:06:36.898Z,18.15
2022-10-25T15:09:41.813Z,18.12
2022-10-25T15:11:49.656Z,17.90
2022-10-25T15:14:18.914Z,18.07
2022-10-25T15:19:47.944Z,18.07
2022-10-25T15:22:14.231Z,18.17
2022-10-25T15:24:40.499Z,18.20
2022-10-25T15:27:06.770Z,18.24
2022-10-25T15:29:33.058Z,18.14
2022-10-25T15:31:59.336Z,18.08
2022-10-25T15:34:25.615Z,18.13
2022-10-25T15:36:51.964Z,18.02
2022-10-25T15:39:18.227Z,17.90
2022-10-25T15:41:44.485Z,17.91
2022-10-25T15:44:10.752Z,17.82
2022-10-25T15:46:37.975Z,17.82
2022-10-25T15:49:04.233Z,17.62
2022-10-25T15:51:31.207Z,17.66
2022-10-25T15:53:57.754Z,17.56
2022-10-25T15:56:24.374Z,17.47
2022-10-25T15:58:51.364Z,17.35
2022-10-25T16:01:17.631Z,17.28
2022-10-25T16:03:44.078Z,17.17
2022-10-25T16:06:10.340Z,17.08
2022-10-25T16:11:07.980Z,16.85
2022-10-25T16:13:34.240Z,16.94
2022-10-25T16:16:04.611Z,16.91
2022-10-25T16:18:38.163Z,16.85
2022-10-25T16:21:04.414Z,16.63
2022-10-25T16:23:31.091Z,16.70
2022-10-25T16:25:57.419Z,16.68
2022-10-25T16:30:54.952Z,16.07
2022-10-25T16:33:21.207Z,16.01
2022-10-25T16:35:47.494Z,16.10
2022-10-25T16:38:15.573Z,16.25
2022-10-25T16:40:41.840Z,16.20
2022-10-25T16:43:08.150Z,16.19
2022-10-25T16:45:34.458Z,16.15
2022-10-25T16:48:01.001Z,16.22
2022-10-25T16:50:27.287Z,16.17
2022-10-25T16:52:53.621Z,16.11
2022-10-25T16:55:19.907Z,15.89
2022-10-25T16:57:46.175Z,15.73
2022-10-25T17:00:12.452Z,15.81
2022-10-25T17:02:38.917Z,15.45
2022-10-25T17:05:05.216Z,15.66
2022-10-25T17:07:31.518Z,15.38
2022-10-25T17:09:57.821Z,15.57
2022-10-25T17:12:24.085Z,15.41
2022-10-25T17:14:50.342Z,15.15
2022-10-25T17:17:16.645Z,14.93
2022-10-25T17:19:42.945Z,15.03
2022-10-25T17:22:09.222Z,14.94
2022-10-25T17:24:37.469Z,15.12
2022-10-25T17:29:35.015Z,15.15
2022-10-25T17:32:01.283Z,15.14
2022-10-25T17:34:27.596Z,15.01
2022-10-25T17:36:54.055Z,14.96
2022-10-25T17:39:20.370Z,14.94
2022-10-25T17:41:46.618Z,14.88
2022-10-25T17:44:12.930Z,14.95
2022-10-25T17:46:39.339Z,14.88
2022-10-25T17:49:05.893Z,14.41
2022-10-25T17:51:32.227Z,14.60
2022-10-25T17:53:58.492Z,14.54
2022-10-25T17:56:24.821Z,14.63
2022-10-25T17:58:51.988Z,14.28
2022-10-25T18:01:18.244Z,14.49
2022-10-25T18:03:45.768Z,14.52
2022-10-25T18:06:12.167Z,14.51
2022-10-25T18:08:42.130Z,14.50
2022-10-25T18:11:08.774Z,14.52
2022-10-25T18:13:36.975Z,13.95
2022-10-25T18:16:07.803Z,13.53
2022-10-25T18:18:34.326Z,13.86
2022-10-25T18:21:00.581Z,13.93
2022-10-25T18:23:26.891Z,14.09
2022-10-25T18:25:53.229Z,13.37
2022-10-25T18:28:19.693Z,13.86
2022-10-25T18:30:46.003Z,13.99
2022-10-25T18:33:14.628Z,13.92
2022-10-25T18:38:15.709Z,14.10
2022-10-25T18:40:44.115Z,14.03
2022-10-25T18:43:10.398Z,14.08
2022-10-25T18:45:36.674Z,13.79
2022-10-25T18:48:02.945Z,13.98
2022-10-25T18:50:29.210Z,13.99
2022-10-25T18:52:55.467Z,14.00
2022-10-25T18:55:26.461Z,13.97
2022-10-25T18:57:54.710Z,13.60
2022-10-25T19:00:23.603Z,13.71
2022-10-25T19:02:52.392Z,13.81
2022-10-25T19:05:19.017Z,13.80
2022-10-25T19:07:45.424Z,13.75
2022-10-25T19:10:11.840Z,13.68
2022-10-25T19:12:38.094Z,12.90
2022-10-25T19:15:04.508Z,13.34
2022-10-25T19:17:30.767Z,13.39
2022-10-25T19:19:57.093Z,13.32
2022-10-25T19:22:23.342Z,13.29
2022-10-25T19:24:49.647Z,13.42
2022-10-25T19:27:15.941Z,13.35
2022-10-25T19:29:42.204Z,13.29
2022-10-25T19:32:08.466Z,13.33
2022-10-25T19:34:34.764Z,13.24
2022-10-25T19:37:04.458Z,13.11
2022-10-25T19:39:30.712Z,13.19
2022-10-25T19:41:58.979Z,13.02
2022-10-25T19:44:25.247Z,13.11
2022-10-25T19:46:51.502Z,13.04
2022-10-25T19:49:17.763Z,13.18
2022-10-25T19:51:44.013Z,12.95
2022-10-25T19:54:10.331Z,13.09
2022-10-25T19:56:38.561Z,12.89
2022-10-25T19:59:04.939Z,12.81
2022-10-25T20:01:31.337Z,12.81
2022-10-25T20:03:57.716Z,12.95
2022-10-25T20:06:24.904Z,12.68
2022-10-25T20:08:54.931Z,12.54
2022-10-25T20:11:21.199Z,12.54
2022-10-25T20:13:47.476Z,12.67
2022-10-25T20:16:14.027Z,12.61
2022-10-25T20:18:40.286Z,12.74
2022-10-25T20:21:07.284Z,12.84
2022-10-25T20:23:33.534Z,12.90
2022-10-25T20:25:59.786Z,12.88
2022-10-25T20:28:26.060Z,12.80
2022-10-25T20:30:52.316Z,12.75
2022-10-25T20:33:20.372Z,12.77
2022-10-25T20:35:46.627Z,12.77
2022-10-25T20:38:12.949Z,12.62
2022-10-25T20:40:39.242Z,12.65
2022-10-25T20:43:05.489Z,12.31
2022-10-25T20:45:31.758Z,12.44
2022-10-25T20:47:58.008Z,12.41
2022-10-25T20:50:24.264Z,12.49
2022-10-25T20:53:09.370Z,12.44
2022-10-25T20:55:36.676Z,12.46
2022-10-25T20:58:02.971Z,12.38
2022-10-25T21:00:29.274Z,12.31
2022-10-25T21:02:55.530Z,12.31
2022-10-25T21:05:21.787Z,12.30
2022-10-25T21:07:48.368Z,12.37
2022-10-25T21:10:14.779Z,12.42
2022-10-25T21:12:41.084Z,12.41
2022-10-25T21:15:11.804Z,12.40
2022-10-25T21:17:38.641Z,12.39
2022-10-25T21:20:04.924Z,12.39
2022-10-25T21:22:31.176Z,12.37
2022-10-25T21:24:57.437Z,12.26
2022-10-25T21:27:23.732Z,12.12
2022-10-25T21:29:50.062Z,11.90
2022-10-25T21:32:16.347Z,12.03
2022-10-25T21:34:42.600Z,12.06
2022-10-25T21:37:08.880Z,12.09
2022-10-25T21:39:35.171Z,12.04
2022-10-25T21:42:01.424Z,12.01
2022-10-25T21:44:28.740Z,11.98
2022-10-25T21:46:55.036Z,12.02
2022-10-25T21:49:21.388Z,11.90
2022-10-25T21:51:47.783Z,11.67
2022-10-25T21:54:14.083Z,11.68
2022-10-25T21:56:40.336Z,11.68
2022-10-25T21:59:06.598Z,11.50
2022-10-25T22:01:33.020Z,11.69
2022-10-25T22:03:59.375Z,11.59
2022-10-25T22:06:25.654Z,11.59
2022-10-25T22:08:55.898Z,11.59
2022-10-25T22:11:22.178Z,11.63
2022-10-25T22:13:48.429Z,11.60
2022-10-25T22:16:14.681Z,11.52
2022-10-25T22:18:40.959Z,11.46
2022-10-25T22:21:07.280Z,11.49
2022-10-25T22:23:33.526Z,11.46
2022-10-25T22:26:00.097Z,11.49
2022-10-25T22:28:26.348Z,11.24
2022-10-25T22:30:52.595Z,11.14
2022-10-25T22:33:18.843Z,11.22
2022-10-25T22:35:45.156Z,11.23
2022-10-25T22:38:11.411Z,11.20
2022-10-25T22:40:37.684Z,11.25
2022-10-25T22:43:04.244Z,11.16
2022-10-25T22:45:30.514Z,10.99
2022-10-25T22:47:56.771Z,11.02
2022-10-25T22:50:23.029Z,11.10
2022-10-25T22:52:49.280Z,11.16
2022-10-25T22:55:15.541Z,11.17
2022-10-25T22:57:41.786Z,11.16
2022-10-25T23:00:08.034Z,11.11
2022-10-25T23:02:34.296Z,10.90
2022-10-25T23:05:00.546Z,10.73
2022-10-25T23:07:26.961Z,10.77
2022-10-25T23:09:53.698Z,10.85
2022-10-25T23:12:19.950Z,10.73
2022-10-25T23:14:46.196Z,10.72
2022-10-25T23:17:12.479Z,10.78
2022-10-25T23:19:38.736Z,10.83
2022-10-25T23:22:04.999Z,10.83
2022-10-25T23:24:31.264Z,10.71
2022-10-25T23:26:57.506Z,10.77
2022-10-25T23:29:23.769Z,10.81
2022-10-25T23:31:50.026Z,10.66
2022-10-25T23:34:16.336Z,10.77
2022-10-25T23:36:42.622Z,10.61
2022-10-25T23:39:08.893Z,10.65
2022-10-25T23:41:35.190Z,10.65
2022-10-25T23:44:01.434Z,10.55
2022-10-25T23:46:27.676Z,10.53
2022-10-25T23:48:56.019Z,10.59
2022-10-25T23:51:22.340Z,10.62
2022-10-25T23:53:48.795Z,10.35
2022-10-25T23:56:15.058Z,10.50
2022-10-25T23:58:41.338Z,10.42
